createdAt,value
2018-08-04T00:02:59.857Z,100429.38
2018-08-04T00:08:03.496Z,100421.58
2018-08-04T00:13:07.129Z,100417.53
2018-08-04T00:18:10.577Z,100417.05
2018-08-04T00:23:14.015Z,100408.17
2018-08-04T00:28:17.529Z,100411.44
2018-08-04T00:33:21.003Z,100404.59
2018-08-04T00:38:24.513Z,100408.80
2018-08-04T00:43:28.009Z,100397.27
2018-08-04T00:48:31.861Z,100394.31
2018-08-04T00:53:35.785Z,100403.33
2018-08-04T00:58:39.799Z,100396.80
2018-08-04T01:03:43.556Z,100391.34
2018-08-04T01:08:47.217Z,100389.31
2018-08-04T01:13:50.913Z,100378.09
2018-08-04T01:18:54.924Z,100379.96
2018-08-04T01:23:58.538Z,100371.88
2018-08-04T01:29:01.957Z,100363.75
2018-08-04T01:34:05.418Z,100361.57
2018-08-04T01:39:10.446Z,100359.86
2018-08-04T01:44:13.909Z,100354.42
2018-08-04T01:49:17.634Z,100358.30
2018-08-04T01:54:21.169Z,100349.27
2018-08-04T01:59:24.661Z,100346.62
2018-08-04T02:04:28.396Z,100344.91
2018-08-04T02:09:31.968Z,100337.12
2018-08-04T02:14:35.481Z,100327.61
2018-08-04T02:19:39.063Z,100323.86
2018-08-04T02:24:42.607Z,100321.23
2018-08-04T02:29:46.365Z,100320.11
2018-08-04T02:34:49.794Z,100322.92
2018-08-04T02:39:53.814Z,100316.56
2018-08-04T02:44:57.343Z,100321.39
2018-08-04T02:50:00.902Z,100319.19
2018-08-04T02:55:04.775Z,100314.06
2018-08-04T03:00:09.497Z,100314.53
2018-08-04T03:05:13.047Z,100308.92
2018-08-04T03:10:16.585Z,100314.05
2018-08-04T03:15:20.433Z,100306.11
2018-08-04T03:20:23.910Z,100311.55
2018-08-04T03:25:27.786Z,100309.41
2018-08-04T03:30:32.113Z,100311.89
2018-08-04T03:35:35.605Z,100317.66
2018-08-04T03:40:39.394Z,100318.42
2018-08-04T03:45:44.161Z,100316.70
2018-08-04T03:50:48.581Z,100316.57
2018-08-04T03:55:53.252Z,100325.59
2018-08-04T04:00:57.873Z,100323.72
2018-08-04T04:06:01.833Z,100321.08
2018-08-04T04:11:05.532Z,100322.00
2018-08-04T04:16:09.109Z,100319.37
2018-08-04T04:21:13.048Z,100336.80
2018-08-04T04:26:16.674Z,100334.16
2018-08-04T04:31:20.762Z,100329.03
2018-08-04T04:36:24.726Z,100332.28
2018-08-04T04:41:28.309Z,100334.63
2018-08-04T04:46:36.243Z,100332.75
2018-08-04T04:51:40.572Z,100330.56
2018-08-04T04:56:45.269Z,100327.31
2018-08-04T05:01:49.236Z,100331.97
2018-08-04T05:06:52.833Z,100333.53
2018-08-04T05:11:56.358Z,100334.47
2018-08-04T05:17:00.209Z,100339.75
2018-08-04T05:22:04.014Z,100336.18
2018-08-04T05:27:08.042Z,100335.54
2018-08-04T05:32:11.897Z,100339.45
2018-08-04T05:37:15.497Z,100343.63
2018-08-04T05:42:19.135Z,100339.75
2018-08-04T05:47:22.824Z,100340.53
2018-08-04T05:52:26.468Z,100342.72
2018-08-04T05:57:30.487Z,100336.02
2018-08-04T06:02:34.239Z,100339.91
2018-08-04T06:07:37.797Z,100347.86
2018-08-04T06:12:41.829Z,100339.28
2018-08-04T06:17:45.976Z,100342.88
2018-08-04T06:22:49.815Z,100338.83
2018-08-04T06:27:53.833Z,100344.59
2018-08-04T06:32:57.825Z,100340.70
2018-08-04T06:38:01.893Z,100334.30
2018-08-04T06:43:05.610Z,100347.09
2018-08-04T06:48:09.356Z,100352.24
2018-08-04T06:53:13.071Z,100346.33
2018-08-04T06:58:17.137Z,100341.64
2018-08-04T07:03:20.653Z,100341.96
2018-08-04T07:08:24.090Z,100327.45
2018-08-04T07:13:27.513Z,100331.52
2018-08-04T07:18:31.016Z,100327.61
2018-08-04T07:23:34.636Z,100327.61
2018-08-04T07:28:38.164Z,100331.81
2018-08-04T07:33:41.625Z,100316.55
2018-08-04T07:38:45.211Z,100320.61
2018-08-04T07:43:49.057Z,100321.06
2018-08-04T07:48:52.672Z,100325.88
2018-08-04T07:53:56.417Z,100327.47
2018-08-04T07:59:00.435Z,100325.71
2018-08-04T08:04:03.953Z,100318.85
2018-08-04T08:09:08.477Z,100319.77
2018-08-04T08:14:11.994Z,100324.78
2018-08-04T08:19:15.784Z,100320.86
2018-08-04T08:24:19.258Z,100317.09
2018-08-04T08:29:22.745Z,100313.67
2018-08-04T08:34:26.469Z,100316.47
2018-08-04T08:39:30.263Z,100307.42
2018-08-04T08:44:33.849Z,100313.52
2018-08-04T08:49:37.433Z,100308.96
2018-08-04T08:54:40.903Z,100304.41
2018-08-04T08:59:44.421Z,100304.41
2018-08-04T09:04:51.563Z,100295.86
2018-08-04T09:09:55.372Z,100293.49
2018-08-04T09:14:59.156Z,100293.49
2018-08-04T09:20:02.778Z,100297.70
2018-08-04T09:25:07.428Z,100296.45
2018-08-04T09:30:13.026Z,100301.60
2018-08-04T09:35:16.953Z,100300.20
2018-08-04T09:40:20.482Z,100288.78
2018-08-04T09:45:23.997Z,100278.67
2018-08-04T09:50:27.670Z,100280.05
2018-08-04T09:55:31.301Z,100276.45
2018-08-04T10:00:40.239Z,100273.18
2018-08-04T10:05:43.997Z,100266.59
2018-08-04T10:10:47.904Z,100263.05
2018-08-04T10:15:51.557Z,100262.88
2018-08-04T10:20:55.302Z,100261.63
2018-08-04T10:25:58.951Z,100251.50
2018-08-04T10:31:02.856Z,100248.06
2018-08-04T10:36:06.644Z,100247.86
2018-08-04T10:41:10.219Z,100244.42
2018-08-04T10:46:14.332Z,100238.69
2018-08-04T10:51:17.830Z,100234.45
2018-08-04T10:56:21.461Z,100223.67
2018-08-04T11:07:02.618Z,100221.56
2018-08-04T11:12:06.210Z,100214.78
2018-08-04T11:17:09.857Z,100209.48
2018-08-04T11:22:13.409Z,100205.77
2018-08-04T11:27:17.150Z,100213.84
2018-08-04T11:32:20.688Z,100212.44
2018-08-04T11:37:24.202Z,100208.80
2018-08-04T11:42:27.616Z,100208.22
2018-08-04T11:47:31.097Z,100202.14
2018-08-04T11:52:34.709Z,100207.88
2018-08-04T11:57:38.409Z,100200.38
2018-08-04T12:02:41.885Z,100205.22
2018-08-04T12:07:45.461Z,100189.87
2018-08-04T12:12:49.226Z,100187.01
2018-08-04T12:23:30.727Z,100189.39
2018-08-04T12:28:34.194Z,100177.11
2018-08-04T12:33:37.678Z,100170.41
2018-08-04T12:38:41.387Z,100168.86
2018-08-04T12:43:44.911Z,100171.66
2018-08-04T12:48:48.609Z,100168.55
2018-08-04T12:53:52.534Z,100173.22
2018-08-04T12:58:56.024Z,100169.16
2018-08-04T13:03:59.711Z,100170.52
2018-08-04T13:09:03.265Z,100162.87
2018-08-04T13:14:07.337Z,100165.05
2018-08-04T13:19:11.430Z,100150.23
2018-08-04T13:24:15.426Z,100155.22
2018-08-04T13:29:19.323Z,100162.61
2018-08-04T13:34:23.081Z,100155.89
2018-08-04T13:39:26.994Z,100158.24
2018-08-04T13:44:30.464Z,100167.28
2018-08-04T13:49:34.173Z,100168.08
2018-08-04T13:54:38.165Z,100163.71
2018-08-04T13:59:41.978Z,100162.61
2018-08-04T14:04:45.429Z,100161.47
2018-08-04T14:09:48.996Z,100166.72
2018-08-04T14:14:52.509Z,100162.03
2018-08-04T14:19:56.013Z,100159.80
2018-08-04T14:24:59.777Z,100156.78
2018-08-04T14:30:03.637Z,100155.70
2018-08-04T14:35:08.081Z,100156.37
2018-08-04T14:40:12.709Z,100152.63
2018-08-04T14:45:16.356Z,100155.01
2018-08-04T14:50:19.852Z,100154.23
2018-08-04T14:55:23.330Z,100148.78
2018-08-04T15:00:26.969Z,100137.22
2018-08-04T15:05:30.749Z,100136.45
2018-08-04T15:10:34.461Z,100128.97
2018-08-04T15:15:40.214Z,100128.75
2018-08-04T15:20:43.821Z,100120.33
2018-08-04T15:25:47.445Z,100120.33
2018-08-04T15:30:50.985Z,100116.89
2018-08-04T15:35:54.546Z,100113.30
2018-08-04T15:40:58.533Z,100115.02
2018-08-04T15:46:02.274Z,100114.39
2018-08-04T15:51:05.990Z,100109.55
2018-08-04T15:56:09.618Z,100112.20
2018-08-04T16:01:13.155Z,100110.64
2018-08-04T16:06:16.745Z,100123.44
2018-08-04T16:11:20.290Z,100122.19
2018-08-04T16:16:24.511Z,100126.25
2018-08-04T16:21:28.380Z,100125.00
2018-08-04T16:26:31.902Z,100122.81
2018-08-04T16:31:35.634Z,100123.09
2018-08-04T16:36:39.242Z,100128.06
2018-08-04T16:41:43.117Z,100121.19
2018-08-04T16:46:46.661Z,100117.30
2018-08-04T16:51:50.100Z,100126.66
2018-08-04T16:56:53.721Z,100125.88
2018-08-04T17:01:57.676Z,100135.56
2018-08-04T17:07:01.122Z,100131.19
2018-08-04T17:12:04.649Z,100132.90
2018-08-04T17:17:08.473Z,100140.70
2018-08-04T17:22:12.001Z,100148.50
2018-08-04T17:27:15.478Z,100139.92
2018-08-04T17:32:19.069Z,100144.77
2018-08-04T17:37:22.658Z,100147.89
2018-08-04T17:42:26.134Z,100161.77
2018-08-04T17:47:29.605Z,100158.03
2018-08-04T17:52:33.090Z,100156.16
2018-08-04T17:57:36.695Z,100159.27
2018-08-04T18:02:40.744Z,100156.93
2018-08-04T18:07:44.366Z,100165.98
2018-08-04T18:12:47.826Z,100163.17
2018-08-04T18:17:51.425Z,100163.80
2018-08-04T18:22:54.861Z,100172.23
2018-08-04T18:27:58.299Z,100172.70
2018-08-04T18:33:01.852Z,100171.92
2018-08-04T18:38:05.362Z,100176.87
2018-08-04T18:43:08.915Z,100178.95
2018-08-04T18:48:12.476Z,100180.50
2018-08-04T18:53:16.045Z,100177.84
2018-08-04T18:58:19.525Z,100186.91
2018-08-04T19:03:23.130Z,100190.02
2018-08-04T19:08:26.634Z,100186.13
2018-08-04T19:13:30.078Z,100185.03
2018-08-04T19:18:33.560Z,100194.25
2018-08-04T19:23:37.165Z,100199.59
2018-08-04T19:28:40.732Z,100194.29
2018-08-04T19:33:44.205Z,100204.90
2018-08-04T19:38:47.665Z,100201.78
2018-08-04T19:43:51.243Z,100203.55
2018-08-04T19:48:54.885Z,100203.23
2018-08-04T19:53:58.466Z,100205.41
2018-08-04T19:59:02.053Z,100210.56
2018-08-04T20:04:05.631Z,100209.78
2018-08-04T20:09:10.652Z,100209.31
2018-08-04T20:14:14.137Z,100209.64
2018-08-04T20:19:17.629Z,100200.28
2018-08-04T20:24:21.135Z,100202.47
2018-08-04T20:29:24.619Z,100197.01
2018-08-04T20:34:28.183Z,100193.58
2018-08-04T20:39:31.738Z,100194.70
2018-08-04T20:44:35.339Z,100207.34
2018-08-04T20:49:38.812Z,100197.67
2018-08-04T20:54:42.330Z,100207.50
2018-08-04T20:59:45.868Z,100213.13
2018-08-04T21:04:49.401Z,100231.06
2018-08-04T21:09:52.934Z,100233.41
2018-08-04T21:14:56.430Z,100236.36
2018-08-04T21:19:59.921Z,100233.13
2018-08-04T21:25:03.557Z,100237.34
2018-08-04T21:30:07.802Z,100236.05
2018-08-04T21:35:11.266Z,100236.84
2018-08-04T21:40:14.777Z,100234.19
2018-08-04T21:45:18.432Z,100231.72
2018-08-04T21:50:21.950Z,100229.19
2018-08-04T21:55:25.598Z,100228.60
2018-08-04T22:00:29.210Z,100219.70
2018-08-04T22:05:32.991Z,100231.09
2018-08-04T22:10:36.539Z,100233.91
2018-08-04T22:15:40.038Z,100239.84
2018-08-04T22:20:43.479Z,100239.52
2018-08-04T22:25:46.905Z,100238.62
2018-08-04T22:30:50.442Z,100239.99
2018-08-04T22:35:53.949Z,100244.70
2018-08-04T22:40:57.529Z,100246.11
2018-08-04T22:46:03.957Z,100243.30
2018-08-04T22:51:07.526Z,100250.48
2018-08-04T22:56:11.009Z,100255.62
2018-08-04T23:01:14.530Z,100267.63
2018-08-04T23:06:18.066Z,100274.03
2018-08-04T23:11:21.549Z,100282.30
2018-08-04T23:16:25.153Z,100282.95
2018-08-04T23:21:28.637Z,100288.09
2018-08-04T23:26:32.141Z,100298.07
2018-08-04T23:31:35.704Z,100300.56
2018-08-04T23:36:39.241Z,100301.83
2018-08-04T23:41:42.817Z,100301.86
2018-08-04T23:46:46.341Z,100306.05
2018-08-04T23:51:49.968Z,100303.24
2018-08-04T23:56:53.501Z,100313.06
